Time;durP1;ratioP1;P1;durP2;ratioP2;P2;SDS_P1;SDS_P2;PMS_P1;PMS_P2;Temp;Humidity;BMP_temperature;BMP_pressure;BME280_temperature;BME280_humidity;BME280_pressure;Samples;Min_cycle;Max_cycle;Signal;HPM_P1;HPM_P2
2022/06/08 00:02:29;;;;;;;10.93;3.45;;;21.90;99.90;;;;;;4977799;28;20031;-70
2022/06/08 00:04:56;;;;;;;6.65;3.25;;;21.90;99.90;;;;;;4973716;28;20039;-68
2022/06/08 00:07:22;;;;;;;4.90;3.08;;;22.00;99.90;;;;;;4972932;28;20018;-69
2022/06/08 00:09:48;;;;;;;7.18;3.17;;;21.90;99.90;;;;;;4970661;28;20081;-67
2022/06/08 00:12:14;;;;;;;4.30;2.70;;;21.90;99.90;;;;;;4970520;28;20030;-64
2022/06/08 00:14:41;;;;;;;7.40;3.00;;;22.00;99.90;;;;;;4971059;28;20057;-71
2022/06/08 00:17:07;;;;;;;7.30;3.72;;;22.00;99.90;;;;;;4970141;28;20070;-70
2022/06/08 00:19:33;;;;;;;5.80;3.20;;;22.00;99.90;;;;;;4971895;28;20039;-71
2022/06/08 00:21:59;;;;;;;7.13;3.47;;;22.10;99.90;;;;;;4971949;28;20019;-72
2022/06/08 00:24:25;;;;;;;7.45;3.70;;;22.20;99.90;;;;;;4971503;28;20114;-71
2022/06/08 00:26:51;;;;;;;5.40;3.25;;;22.10;99.90;;;;;;4970105;28;20109;-68
2022/06/08 00:29:17;;;;;;;5.07;3.50;;;22.00;99.90;;;;;;4971161;28;20035;-69
2022/06/08 00:31:44;;;;;;;4.85;3.03;;;22.10;99.90;;;;;;4953817;28;20031;-71
2022/06/08 00:34:10;;;;;;;6.40;3.28;;;22.20;99.90;;;;;;4967332;28;20031;-71
2022/06/08 00:36:37;;;;;;;7.07;3.70;;;22.20;99.90;;;;;;4969598;28;20070;-71
2022/06/08 00:39:04;;;;;;;7.63;3.47;;;22.20;99.90;;;;;;4984725;28;20535;-72
2022/06/08 00:41:53;;;;;;;5.50;3.53;;;22.30;99.90;;;;;;4967923;28;20031;-71
2022/06/08 00:44:22;;;;;;;11.45;4.13;;;22.30;99.90;;;;;;4967465;28;20460;-71
2022/06/08 00:46:49;;;;;;;6.20;3.38;;;22.30;99.90;;;;;;4948129;28;20026;-71
2022/06/08 00:49:31;;;;;;;8.25;4.25;;;22.10;99.90;;;;;;4965251;28;20465;-69
2022/06/08 00:52:00;;;;;;;7.22;4.20;;;22.10;99.90;;;;;;4969936;28;20035;-71
2022/06/08 00:54:33;;;;;;;8.13;3.92;;;22.00;99.90;;;;;;4984393;28;20449;-67
2022/06/08 00:57:04;;;;;;;6.05;3.75;;;22.00;99.90;;;;;;4964014;28;20027;-65
2022/06/08 00:59:30;;;;;;;4.72;3.50;;;22.00;99.90;;;;;;4964344;28;20510;-63
2022/06/08 01:01:56;;;;;;;6.40;3.72;;;21.90;99.90;;;;;;4963334;28;20110;-69
2022/06/08 01:04:24;;;;;;;6.88;4.22;;;21.90;99.90;;;;;;4975550;28;20440;-69
2022/06/08 01:06:55;;;;;;;6.03;3.50;;;21.90;99.90;;;;;;4968885;28;20019;-70
2022/06/08 01:09:34;;;;;;;8.68;3.60;;;21.80;99.90;;;;;;4982120;28;20536;-69
2022/06/08 01:12:04;;;;;;;9.60;3.95;;;21.80;99.90;;;;;;4972854;28;20082;-68
2022/06/08 01:14:35;;;;;;;7.65;4.13;;;21.70;99.90;;;;;;4947001;28;20035;-63
2022/06/08 01:17:14;;;;;;;11.20;4.47;;;21.70;99.90;;;;;;4977079;28;20034;-64
2022/06/08 01:19:44;;;;;;;6.47;4.13;;;21.50;99.90;;;;;;4971068;28;20063;-63
2022/06/08 01:22:16;;;;;;;11.35;4.70;;;20.80;99.90;;;;;;4970110;28;20093;-72
2022/06/08 01:24:49;;;;;;;10.15;4.85;;;20.40;99.90;;;;;;4968015;28;20114;-64
2022/06/08 01:27:50;;;;;;;8.98;4.90;;;20.20;99.90;;;;;;4972058;28;20030;-71
2022/06/08 01:31:07;;;;;;;8.82;4.68;;;20.10;99.90;;;;;;4966376;28;20039;-67
2022/06/08 01:34:05;;;;;;;10.60;5.32;;;20.00;99.90;;;;;;4921026;29;20126;-72
2022/06/08 01:37:09;;;;;;;10.43;4.95;;;19.90;99.90;;;;;;4875230;29;20124;-72
2022/06/08 01:39:41;;;;;;;8.60;4.45;;;19.90;99.90;;;;;;4860187;29;20041;-71
2022/06/08 01:42:43;;;;;;;11.23;4.93;;;19.90;99.90;;;;;;4840804;29;20041;-71
2022/06/08 01:45:33;;;;;;;7.43;4.80;;;19.70;99.90;;;;;;4843937;29;20045;-71
2022/06/08 01:48:10;;;;;;;10.93;3.65;;;19.70;99.90;;;;;;4855510;29;20144;-72
2022/06/08 01:51:06;;;;;;;7.63;4.30;;;19.60;99.90;;;;;;4854764;29;20594;-72
2022/06/08 01:53:53;;;;;;;8.38;4.75;;;19.60;99.90;;;;;;4840793;29;20041;-72
2022/06/08 01:56:45;;;;;;;6.45;4.15;;;19.50;99.90;;;;;;4840419;29;20051;-72
2022/06/08 01:59:40;;;;;;;10.20;4.85;;;19.50;99.90;;;;;;4822645;29;20056;-72
2022/06/08 02:02:18;;;;;;;9.85;5.00;;;19.40;99.90;;;;;;4823182;29;20099;-72
2022/06/08 02:05:14;;;;;;;7.80;4.75;;;19.40;99.90;;;;;;4824075;29;20490;-70
2022/06/08 02:08:01;;;;;;;7.72;4.18;;;19.40;99.90;;;;;;4786241;29;20051;-71
2022/06/08 02:10:58;;;;;;;8.98;4.47;;;19.40;99.90;;;;;;4757434;29;20048;-71
2022/06/08 02:13:45;;;;;;;7.78;3.92;;;19.40;99.90;;;;;;4784870;29;20042;-69
2022/06/08 02:16:20;;;;;;;9.73;5.20;;;19.30;99.90;;;;;;4803223;29;20100;-72
2022/06/08 02:18:59;;;;;;;15.35;4.88;;;19.20;99.90;;;;;;4801973;29;20514;-72
2022/06/08 02:21:35;;;;;;;7.75;4.60;;;19.10;99.90;;;;;;4803873;29;20107;-72
2022/06/08 02:24:13;;;;;;;8.13;4.88;;;19.00;99.90;;;;;;4804259;29;20414;-68
2022/06/08 02:26:43;;;;;;;6.13;4.93;;;19.00;99.90;;;;;;4804759;29;20035;-72
2022/06/08 02:29:16;;;;;;;11.30;5.07;;;18.90;99.90;;;;;;4804465;29;20043;-71
2022/06/08 02:31:52;;;;;;;10.13;5.25;;;18.80;99.90;;;;;;4804356;29;20038;-71
2022/06/08 02:34:32;;;;;;;12.88;5.00;;;18.90;99.90;;;;;;4803996;29;20038;-71
2022/06/08 02:37:23;;;;;;;7.68;5.07;;;18.90;99.90;;;;;;4849633;29;20045;-71
2022/06/08 02:39:59;;;;;;;9.85;5.45;;;18.90;99.90;;;;;;4843262;29;20520;-72
2022/06/08 02:42:34;;;;;;;11.02;5.35;;;19.00;99.90;;;;;;4843806;29;20384;-71
2022/06/08 02:45:11;;;;;;;17.92;5.65;;;19.00;99.90;;;;;;4897725;29;20403;-70
2022/06/08 02:47:39;;;;;;;7.25;4.57;;;19.00;99.90;;;;;;4899228;29;20064;-72
2022/06/08 02:50:14;;;;;;;9.07;5.65;;;19.00;99.90;;;;;;4937717;28;20485;-72
2022/06/08 02:52:43;;;;;;;11.75;6.57;;;19.00;99.90;;;;;;4973453;28;20034;-68
2022/06/08 02:55:28;;;;;;;12.40;7.43;;;19.00;99.90;;;;;;4990391;28;20023;-71
2022/06/08 02:58:05;;;;;;;13.77;7.57;;;19.00;99.90;;;;;;4972767;28;20130;-71
2022/06/08 03:00:40;;;;;;;10.82;6.82;;;19.10;99.90;;;;;;4973449;28;20114;-72
2022/06/08 03:03:17;;;;;;;14.35;7.97;;;19.20;99.90;;;;;;4986192;28;20035;-72
2022/06/08 03:05:54;;;;;;;10.90;5.85;;;19.10;99.90;;;;;;4989427;28;20026;-72
2022/06/08 03:08:47;;;;;;;11.10;5.20;;;19.20;99.90;;;;;;4972654;28;20410;-71
2022/06/08 03:11:15;;;;;;;9.32;5.78;;;19.40;99.90;;;;;;4972785;28;20049;-71
2022/06/08 03:13:55;;;;;;;8.48;5.63;;;19.50;99.90;;;;;;4962731;28;20032;-70
2022/06/08 03:16:39;;;;;;;12.93;7.28;;;19.60;99.90;;;;;;4971288;28;20100;-71
2022/06/08 03:19:10;;;;;;;13.63;7.82;;;19.60;99.90;;;;;;4971682;28;20089;-68
2022/06/08 03:21:37;;;;;;;13.45;7.03;;;19.50;99.90;;;;;;4973534;28;20030;-70
2022/06/08 03:24:05;;;;;;;10.77;5.35;;;19.60;99.90;;;;;;4972804;28;20050;-71
2022/06/08 03:26:43;;;;;;;8.48;5.20;;;19.60;99.90;;;;;;4973622;28;20019;-71
2022/06/08 03:29:10;;;;;;;9.85;5.63;;;19.70;99.90;;;;;;4966518;28;20030;-68
2022/06/08 03:31:36;;;;;;;10.02;5.90;;;19.70;99.90;;;;;;4974796;28;20161;-71
2022/06/08 03:34:03;;;;;;;10.27;5.68;;;19.80;99.90;;;;;;4961993;28;20035;-72
2022/06/08 03:36:32;;;;;;;10.18;5.88;;;19.70;99.90;;;;;;4972030;28;20062;-70
2022/06/08 03:38:59;;;;;;;13.38;7.38;;;19.70;99.90;;;;;;4970635;28;20039;-71
2022/06/08 03:41:26;;;;;;;8.45;5.65;;;19.70;99.90;;;;;;4971142;28;20123;-69
2022/06/08 03:43:53;;;;;;;11.68;6.38;;;19.70;99.90;;;;;;4967070;28;20063;-71
2022/06/08 03:46:20;;;;;;;9.93;6.60;;;19.80;99.90;;;;;;4987637;28;20027;-71
2022/06/08 03:48:48;;;;;;;14.73;6.38;;;19.90;99.90;;;;;;4973177;28;20570;-71
2022/06/08 03:51:16;;;;;;;12.07;6.85;;;19.90;99.90;;;;;;4969867;28;20532;-71
2022/06/08 03:53:52;;;;;;;10.60;6.30;;;20.00;99.90;;;;;;4988501;28;20548;-71
2022/06/08 03:56:23;;;;;;;11.70;6.88;;;19.90;99.90;;;;;;4974111;28;20018;-70
2022/06/08 03:58:51;;;;;;;13.00;7.45;;;20.00;99.90;;;;;;4973914;28;20051;-71
2022/06/08 04:01:20;;;;;;;22.08;8.15;;;19.80;99.90;;;;;;4956589;28;20081;-71
2022/06/08 04:03:52;;;;;;;12.95;7.15;;;20.00;99.90;;;;;;4971919;28;20039;-71
2022/06/08 04:06:19;;;;;;;10.50;7.05;;;20.00;99.90;;;;;;4972374;28;20038;-71
2022/06/08 04:08:46;;;;;;;10.52;6.60;;;20.10;99.90;;;;;;4956463;28;20031;-71
2022/06/08 04:11:12;;;;;;;14.40;7.60;;;20.30;99.90;;;;;;4973056;28;20026;-71
2022/06/08 04:13:39;;;;;;;15.15;7.80;;;20.30;99.90;;;;;;4963869;28;20031;-72
2022/06/08 04:16:10;;;;;;;13.68;7.18;;;20.40;99.90;;;;;;4977098;28;20035;-70
2022/06/08 04:18:43;;;;;;;;;;;20.50;99.90;;;;;;4973251;28;20173;-71
2022/06/08 04:21:11;;;;;;;10.50;5.88;;;20.60;99.90;;;;;;4987324;28;19949;-70
2022/06/08 04:23:45;;;;;;;12.48;7.47;;;20.70;99.90;;;;;;4969770;28;20023;-71
2022/06/08 04:26:13;;;;;;;13.02;7.30;;;20.70;99.90;;;;;;4972181;28;20022;-72
2022/06/08 04:28:41;;;;;;;11.82;7.25;;;20.70;99.90;;;;;;4987654;28;20034;-70
2022/06/08 04:31:14;;;;;;;11.50;6.65;;;20.80;99.90;;;;;;4975019;28;20026;-71
2022/06/08 04:33:42;;;;;;;13.45;7.65;;;20.80;99.90;;;;;;4971620;28;20035;-71
2022/06/08 04:36:10;;;;;;;9.60;6.13;;;21.20;99.90;;;;;;4964474;28;20042;-70
2022/06/08 04:38:37;;;;;;;10.40;6.47;;;22.20;99.90;;;;;;4972053;28;20470;-71
2022/06/08 04:41:04;;;;;;;12.23;6.78;;;22.50;99.90;;;;;;4971798;28;20109;-71
2022/06/08 04:43:33;;;;;;;15.95;8.60;;;22.60;99.90;;;;;;4951524;28;20050;-71
2022/06/08 04:46:00;;;;;;;13.15;7.63;;;22.60;99.90;;;;;;4949975;28;20086;-72
2022/06/08 04:48:28;;;;;;;15.82;7.78;;;22.80;99.90;;;;;;4960784;28;20026;-72
2022/06/08 04:50:55;;;;;;;15.68;8.20;;;22.90;99.90;;;;;;4971738;28;20073;-72
2022/06/08 04:53:21;;;;;;;11.80;7.63;;;22.90;99.90;;;;;;4971380;28;20489;-71
2022/06/08 04:55:47;;;;;;;12.05;7.30;;;22.60;99.90;;;;;;4972310;28;20113;-71
2022/06/08 04:58:13;;;;;;;13.15;7.85;;;22.60;99.90;;;;;;4971495;28;20110;-72
2022/06/08 05:00:41;;;;;;;13.48;7.50;;;22.70;99.90;;;;;;4971257;28;20469;-72
2022/06/08 05:03:08;;;;;;;11.50;7.20;;;22.70;99.90;;;;;;4970637;28;20459;-71
2022/06/08 05:05:39;;;;;;;12.82;7.43;;;22.70;99.90;;;;;;4955437;28;20481;-71
2022/06/08 05:08:10;;;;;;;12.13;7.32;;;22.70;99.90;;;;;;4987437;28;20485;-72
2022/06/08 05:10:40;;;;;;;11.70;6.93;;;22.70;99.90;;;;;;4955394;28;20564;-71
2022/06/08 05:13:10;;;;;;;12.32;6.38;;;22.60;99.90;;;;;;4985321;28;20086;-72
2022/06/08 05:15:41;;;;;;;8.00;5.80;;;22.70;99.90;;;;;;4964784;28;20445;-71
2022/06/08 05:18:09;;;;;;;12.40;6.63;;;22.80;99.90;;;;;;4955039;28;20047;-71
2022/06/08 05:20:38;;;;;;;10.00;6.28;;;22.80;99.90;;;;;;4955163;28;20054;-70
2022/06/08 05:23:06;;;;;;;11.85;6.85;;;22.80;99.90;;;;;;4972296;28;20031;-71
2022/06/08 05:25:38;;;;;;;11.65;6.72;;;22.80;99.90;;;;;;4970897;28;20412;-71
2022/06/08 05:28:06;;;;;;;10.65;6.32;;;22.70;99.90;;;;;;4987081;28;20026;-71
2022/06/08 05:30:36;;;;;;;11.50;6.65;;;22.60;99.90;;;;;;4952950;28;20134;-72
2022/06/08 05:33:04;;;;;;;14.88;6.47;;;22.70;99.90;;;;;;4971024;28;20086;-71
2022/06/08 05:35:31;;;;;;;11.23;6.30;;;22.70;99.90;;;;;;4971299;28;20022;-71
2022/06/08 05:37:57;;;;;;;8.75;5.65;;;22.90;99.90;;;;;;4983091;28;20038;-71
2022/06/08 05:40:28;;;;;;;14.70;6.32;;;22.80;99.90;;;;;;4971125;28;20421;-70
2022/06/08 05:42:55;;;;;;;12.68;5.63;;;22.90;99.90;;;;;;4954698;28;20058;-69
2022/06/08 05:45:24;;;;;;;11.15;6.13;;;22.90;99.90;;;;;;4943604;29;20035;-72
2022/06/08 05:47:51;;;;;;;12.02;7.00;;;22.70;99.90;;;;;;4986453;28;20055;-71
2022/06/08 05:50:20;;;;;;;13.35;7.55;;;22.50;99.90;;;;;;4971025;28;20031;-67
2022/06/08 05:52:48;;;;;;;11.10;6.18;;;22.40;99.90;;;;;;4970994;28;20073;-70
2022/06/08 05:55:16;;;;;;;14.63;7.45;;;22.20;99.90;;;;;;4954508;28;20370;-71
2022/06/08 05:57:42;;;;;;;12.63;7.13;;;22.30;99.90;;;;;;4967448;28;20100;-71
2022/06/08 06:00:12;;;;;;;11.68;7.13;;;22.30;99.90;;;;;;4969240;28;20061;-71
2022/06/08 06:02:41;;;;;;;11.93;6.90;;;22.60;99.90;;;;;;4971794;28;20034;-69
2022/06/08 06:05:11;;;;;;;12.82;7.40;;;22.50;99.90;;;;;;4984253;28;20053;-71
2022/06/08 06:07:39;;;;;;;14.60;7.80;;;22.40;99.90;;;;;;4986995;28;20126;-71
2022/06/08 06:10:27;;;;;;;13.77;8.15;;;22.40;99.90;;;;;;4954448;28;20047;-71
2022/06/08 06:12:54;;;;;;;12.20;7.60;;;22.40;99.90;;;;;;4970727;28;20082;-70
2022/06/08 06:15:23;;;;;;;11.18;7.32;;;22.60;99.90;;;;;;4962582;28;20031;-71
2022/06/08 06:17:49;;;;;;;12.02;7.93;;;22.80;99.90;;;;;;4967399;28;20110;-70
2022/06/08 06:20:15;;;;;;;14.10;8.68;;;22.80;99.90;;;;;;4954358;28;20077;-68
2022/06/08 06:23:04;;;;;;;18.70;9.85;;;22.70;99.90;;;;;;4969668;28;20031;-72
2022/06/08 06:25:51;;;;;;;12.18;8.02;;;22.40;99.90;;;;;;4968075;28;20023;-70
2022/06/08 06:28:31;;;;;;;15.93;8.93;;;22.20;99.90;;;;;;4949189;28;20347;-72
2022/06/08 06:31:23;;;;;;;17.08;10.50;;;22.00;99.90;;;;;;4953718;28;20118;-72
2022/06/08 06:34:01;;;;;;;16.10;11.15;;;21.70;99.90;;;;;;4966151;28;20043;-71
2022/06/08 06:36:27;;;;;;;13.75;9.70;;;21.60;99.90;;;;;;4969656;28;20408;-71
2022/06/08 06:38:54;;;;;;;16.70;7.97;;;21.50;99.90;;;;;;4967526;28;20389;-66
2022/06/08 06:41:22;;;;;;;12.57;7.25;;;21.10;99.90;;;;;;4967421;28;20116;-70
2022/06/08 06:43:50;;;;;;;11.60;5.63;;;20.60;99.90;;;;;;4973941;28;20059;-71
2022/06/08 06:46:32;;;;;;;;;;;20.20;99.90;;;;;;4970426;28;20035;-71
2022/06/08 06:49:08;;;;;;;8.65;4.40;;;19.80;99.90;;;;;;4971975;28;19910;-72
2022/06/08 06:51:35;;;;;;;7.53;3.97;;;19.50;99.90;;;;;;4957383;28;20038;-71
2022/06/08 06:54:05;;;;;;;7.22;3.75;;;19.10;99.90;;;;;;4969758;28;20019;-70
2022/06/08 06:56:34;;;;;;;6.15;3.30;;;18.90;99.90;;;;;;4986152;28;20050;-71
2022/06/08 06:59:04;;;;;;;8.85;3.92;;;18.80;99.90;;;;;;4953791;28;20169;-72
2022/06/08 07:01:34;;;;;;;8.25;3.63;;;18.70;99.90;;;;;;4952481;28;20049;-73
2022/06/08 07:04:01;;;;;;;10.02;4.40;;;18.50;99.90;;;;;;4983450;28;20019;-73
2022/06/08 07:06:29;;;;;;;10.55;4.32;;;18.30;99.90;;;;;;4985786;28;20031;-69
2022/06/08 07:08:59;;;;;;;10.20;3.63;;;18.40;99.90;;;;;;4969687;28;20722;-72
2022/06/08 07:11:40;;;;;;;11.02;4.38;;;18.20;99.90;;;;;;4954434;28;20035;-71
2022/06/08 07:14:35;;;;;;;9.82;3.70;;;18.20;99.90;;;;;;4950011;29;20028;-73
2022/06/08 07:17:08;;;;;;;5.65;2.90;;;18.20;99.90;;;;;;4962245;28;20039;-75
2022/06/08 07:19:38;;;;;;;8.25;3.67;;;18.10;99.90;;;;;;4945584;29;20055;-74
2022/06/08 07:22:05;;;;;;;6.55;3.28;;;18.20;99.90;;;;;;4948563;29;20020;-74
2022/06/08 07:24:33;;;;;;;7.63;3.35;;;18.10;99.90;;;;;;4951266;29;20062;-75
2022/06/08 07:27:00;;;;;;;6.60;3.60;;;18.10;99.90;;;;;;4951667;29;20110;-74
2022/06/08 07:29:26;;;;;;;9.82;3.85;;;18.10;99.90;;;;;;4951796;29;20028;-75
2022/06/08 07:31:52;;;;;;;5.82;3.60;;;18.20;99.90;;;;;;4951277;28;20474;-74
2022/06/08 07:34:18;;;;;;;9.32;3.25;;;18.20;99.90;;;;;;4970776;28;20023;-74
2022/06/08 07:36:45;;;;;;;5.63;3.03;;;18.30;99.90;;;;;;4965468;28;20034;-74
2022/06/08 07:39:13;;;;;;;9.20;3.85;;;18.40;99.90;;;;;;4952208;29;20493;-74
2022/06/08 07:41:39;;;;;;;5.80;3.08;;;18.50;99.90;;;;;;4952701;29;20038;-74
2022/06/08 07:44:05;;;;;;;8.05;4.13;;;18.60;99.90;;;;;;4952228;29;20106;-73
2022/06/08 07:46:31;;;;;;;6.32;3.17;;;18.70;99.90;;;;;;4950802;28;20403;-74
2022/06/08 07:51:42;;;;;;;8.85;3.85;;;18.90;99.90;;;;;;4968442;28;20498;-73
2022/06/08 07:54:07;;;;;;;6.88;3.85;;;19.00;99.90;;;;;;4972404;28;20030;-74
2022/06/08 07:56:34;;;;;;;6.82;3.05;;;19.00;99.90;;;;;;4969584;28;20027;-74
2022/06/08 07:59:03;;;;;;;4.45;2.85;;;19.10;99.90;;;;;;4973621;28;20516;-74
2022/06/08 08:01:30;;;;;;;3.45;2.40;;;19.00;99.90;;;;;;4971853;28;20373;-73
2022/06/08 08:03:56;;;;;;;7.78;2.63;;;19.10;99.90;;;;;;4972981;28;20027;-73
2022/06/08 08:06:22;;;;;;;4.82;2.28;;;19.00;99.90;;;;;;4973323;28;20041;-74
2022/06/08 08:08:48;;;;;;;5.95;3.05;;;19.00;99.90;;;;;;4972399;28;20026;-74
2022/06/08 08:11:14;;;;;;;4.38;2.95;;;19.00;99.90;;;;;;4969927;28;20693;-74
2022/06/08 08:13:40;;;;;;;5.55;3.28;;;18.90;99.90;;;;;;4965634;28;20032;-74
2022/06/08 08:16:06;;;;;;;6.20;3.67;;;19.00;99.90;;;;;;4969838;28;20391;-74
2022/06/08 08:18:32;;;;;;;5.55;2.42;;;19.10;99.90;;;;;;4972542;28;20481;-74
2022/06/08 08:20:58;;;;;;;4.43;2.40;;;19.10;99.90;;;;;;4972706;28;20106;-72
2022/06/08 08:23:24;;;;;;;5.10;2.85;;;19.20;99.90;;;;;;4968589;28;20035;-73
2022/06/08 08:25:52;;;;;;;5.32;2.97;;;19.30;99.90;;;;;;4970155;28;20026;-74
2022/06/08 08:28:18;;;;;;;9.88;3.30;;;19.50;99.90;;;;;;4973260;28;20038;-74
2022/06/08 08:30:44;;;;;;;7.65;3.83;;;19.60;99.90;;;;;;4973119;28;20489;-74
2022/06/08 08:33:10;;;;;;;10.90;4.57;;;19.70;99.90;;;;;;4966257;28;20033;-73
2022/06/08 08:35:36;;;;;;;8.95;4.53;;;19.80;99.90;;;;;;4965896;28;20532;-74
2022/06/08 08:38:02;;;;;;;9.27;4.93;;;19.90;99.90;;;;;;4972917;28;20034;-73
2022/06/08 08:40:51;;;;;;;6.95;3.90;;;20.00;99.90;;;;;;4972158;28;20034;-73
2022/06/08 08:43:23;;;;;;;10.88;4.38;;;20.20;99.90;;;;;;4959217;28;20393;-73
2022/06/08 08:46:04;;;;;;;7.93;3.90;;;20.00;99.90;;;;;;4967971;28;20035;-73
2022/06/08 08:48:46;;;;;;;7.18;4.57;;;19.90;99.90;;;;;;4973079;28;20461;-72
2022/06/08 08:51:15;;;;;;;6.78;4.07;;;19.80;99.90;;;;;;4973275;28;20501;-73
2022/06/08 08:54:02;;;;;;;7.70;4.25;;;19.80;99.90;;;;;;4969839;28;20058;-74
2022/06/08 08:56:35;;;;;;;5.65;3.70;;;19.60;99.90;;;;;;4968639;28;20157;-73
2022/06/08 08:59:01;;;;;;;;;;;19.60;99.90;;;;;;4973225;28;20118;-72
2022/06/08 09:01:28;;;;;;;5.53;3.65;;;19.60;99.90;;;;;;4961626;28;20335;-73
2022/06/08 09:03:57;;;;;;;5.90;3.88;;;19.70;99.90;;;;;;4973016;28;20031;-73
2022/06/08 09:06:27;;;;;;;8.13;3.25;;;20.00;99.90;;;;;;4971747;28;20100;-71
2022/06/08 09:09:00;;;;;;;6.10;3.57;;;20.20;99.90;;;;;;4955193;28;20117;-73
2022/06/08 09:11:30;;;;;;;;;;;20.50;99.90;;;;;;4972234;28;20445;-73
2022/06/08 09:14:13;;;;;;;6.13;3.58;;;20.50;99.90;;;;;;4972534;28;19910;-72
2022/06/08 09:16:47;;;;;;;6.68;3.15;;;20.40;99.90;;;;;;4972486;28;20374;-73
2022/06/08 09:19:21;;;;;;;5.88;3.85;;;20.40;99.90;;;;;;4971214;28;20382;-73
2022/06/08 09:21:53;;;;;;;6.78;3.58;;;20.50;99.90;;;;;;4971757;28;20113;-72
2022/06/08 09:24:42;;;;;;;4.97;3.35;;;20.50;99.90;;;;;;4972701;28;20027;-71
2022/06/08 09:27:23;;;;;;;7.60;4.38;;;20.70;99.90;;;;;;4971387;28;20038;-70
2022/06/08 09:30:02;;;;;;;7.80;3.47;;;20.80;99.90;;;;;;4972017;28;20380;-71
2022/06/08 09:32:30;;;;;;;7.70;4.32;;;20.70;99.90;;;;;;4963222;28;20030;-70
2022/06/08 09:35:00;;;;;;;8.38;4.10;;;20.50;99.90;;;;;;4971902;28;20113;-70
2022/06/08 09:37:27;;;;;;;6.20;3.83;;;20.60;99.90;;;;;;4971522;28;20039;-70
2022/06/08 09:39:56;;;;;;;4.47;3.05;;;20.70;99.90;;;;;;4971188;28;20027;-69
2022/06/08 09:42:38;;;;;;;5.07;3.53;;;20.60;99.90;;;;;;4967529;28;20060;-70
2022/06/08 09:45:22;;;;;;;11.65;4.40;;;20.80;99.90;;;;;;4954536;28;20122;-72
2022/06/08 09:54:33;;;;;;;6.38;3.72;;;20.70;99.90;;;;;;4908936;28;20040;-73
2022/06/08 09:57:48;;;;;;;5.47;3.15;;;20.70;99.90;;;;;;4905139;29;20052;-73
2022/06/08 10:00:20;;;;;;;5.15;3.40;;;20.70;99.90;;;;;;4857444;29;20061;-72
2022/06/08 10:03:05;;;;;;;;;;;20.70;99.90;;;;;;4874522;29;20039;-72
2022/06/08 10:05:45;;;;;;;5.43;2.75;;;20.90;99.90;;;;;;4874441;29;19923;-73
2022/06/08 10:08:10;;;;;;;5.90;3.72;;;21.00;99.90;;;;;;4861542;29;20057;-70
2022/06/08 10:10:43;;;;;;;4.05;2.88;;;21.30;99.90;;;;;;4860445;29;20612;-73
2022/06/08 10:13:20;;;;;;;5.82;3.50;;;21.70;99.90;;;;;;4871111;29;20033;-72
2022/06/08 10:15:51;;;;;;;5.63;3.70;;;21.50;99.90;;;;;;4863586;29;20117;-72
2022/06/08 10:18:27;;;;;;;6.87;3.90;;;21.60;99.90;;;;;;4862749;29;20524;-68
2022/06/08 10:20:55;;;;;;;9.32;4.03;;;21.90;99.90;;;;;;4871519;29;20276;-72
2022/06/08 10:23:45;;;;;;;4.63;2.97;;;22.10;99.90;;;;;;4866070;29;20073;-72
2022/06/08 10:26:36;;;;;;;7.28;3.53;;;22.00;99.90;;;;;;4861538;29;20033;-72
2022/06/08 10:29:29;;;;;;;4.90;3.53;;;22.00;99.90;;;;;;4855540;29;20095;-71
2022/06/08 10:32:20;;;;;;;5.10;3.42;;;22.10;99.90;;;;;;4858513;29;20053;-70
2022/06/08 10:34:53;;;;;;;3.45;2.78;;;22.40;99.90;;;;;;4845775;29;20037;-69
2022/06/08 10:37:41;;;;;;;5.25;2.50;;;22.30;99.90;;;;;;4934816;28;20081;-69
2022/06/08 10:40:13;;;;;;;5.22;2.80;;;22.30;99.90;;;;;;4973179;28;20046;-70
2022/06/08 10:42:43;;;;;;;3.88;2.60;;;22.50;99.90;;;;;;4972721;28;20069;-70
2022/06/08 10:45:21;;;;;;;5.22;2.83;;;22.90;99.90;;;;;;4963937;28;20042;-69
2022/06/08 10:47:52;;;;;;;3.05;2.40;;;22.80;99.90;;;;;;4973762;28;20027;-68
2022/06/08 10:50:39;;;;;;;4.85;2.53;;;22.80;99.90;;;;;;4982697;28;20030;-69
2022/06/08 10:56:34;;;;;;;4.13;2.60;;;23.10;99.90;;;;;;4968633;28;20102;-73
2022/06/08 10:59:03;;;;;;;3.90;2.22;;;23.30;99.90;;;;;;4965840;28;20054;-66
2022/06/08 11:01:55;;;;;;;2.88;1.98;;;23.30;99.90;;;;;;4959667;28;20030;-70
2022/06/08 11:04:35;;;;;;;4.03;2.30;;;23.40;99.90;;;;;;4969106;28;20079;-70
2022/06/08 11:07:06;;;;;;;4.53;2.72;;;23.70;99.90;;;;;;4960579;28;20590;-73
2022/06/08 11:09:33;;;;;;;6.18;2.70;;;23.50;99.90;;;;;;4970380;28;20038;-70
2022/06/08 11:12:13;;;;;;;4.25;2.13;;;23.40;99.90;;;;;;4999712;28;20033;-70
2022/06/08 11:14:48;;;;;;;4.00;2.08;;;23.50;99.90;;;;;;4969821;28;20065;-63
2022/06/08 11:17:25;;;;;;;2.92;2.10;;;23.50;99.90;;;;;;4968892;28;20027;-68
2022/06/08 11:20:16;;;;;;;4.78;2.28;;;23.50;99.90;;;;;;4972780;28;20485;-71
2022/06/08 11:22:51;;;;;;;3.17;2.00;;;23.40;99.90;;;;;;4974953;28;20469;-70
2022/06/08 11:25:25;;;;;;;3.60;2.35;;;23.40;99.90;;;;;;4973180;28;20023;-72
2022/06/08 11:28:30;;;;;;;3.35;2.22;;;23.70;99.90;;;;;;4972439;28;20031;-67
2022/06/08 11:31:04;;;;;;;3.83;2.28;;;23.80;99.90;;;;;;4971528;28;20034;-71
2022/06/08 11:34:12;;;;;;;3.60;2.22;;;23.90;99.90;;;;;;4972384;28;20041;-71
2022/06/08 11:36:47;;;;;;;4.60;2.13;;;24.00;99.90;;;;;;4952448;29;20078;-70
2022/06/08 11:39:37;;;;;;;3.35;2.03;;;24.10;99.90;;;;;;4952173;29;20230;-69
2022/06/08 11:42:29;;;;;;;4.95;2.25;;;24.00;99.90;;;;;;4951134;29;20036;-72
2022/06/08 11:45:10;;;;;;;2.88;2.20;;;24.50;99.90;;;;;;4951417;29;20054;-70
2022/06/08 11:47:52;;;;;;;2.95;2.15;;;24.30;99.90;;;;;;4952537;29;20085;-71
2022/06/08 11:50:45;;;;;;;3.08;2.10;;;24.40;99.90;;;;;;4952227;28;20130;-71
2022/06/08 11:53:40;;;;;;;5.63;2.75;;;24.60;99.90;;;;;;4951856;29;20580;-71
2022/06/08 11:56:29;;;;;;;2.58;1.83;;;24.90;99.90;;;;;;4951999;29;20510;-71
2022/06/08 11:58:59;;;;;;;2.75;2.30;;;25.10;99.90;;;;;;4951267;29;20043;-70
2022/06/08 12:01:26;;;;;;;3.70;2.25;;;25.10;99.90;;;;;;4956000;28;20552;-71
2022/06/08 12:04:08;;;;;;;2.67;2.13;;;25.10;99.90;;;;;;4971481;28;20058;-72
2022/06/08 12:06:41;;;;;;;4.70;2.00;;;25.20;99.90;;;;;;4971593;28;20114;-66
2022/06/08 12:09:19;;;;;;;4.55;2.25;;;25.20;99.90;;;;;;4961366;28;20031;-72
2022/06/08 12:11:50;;;;;;;3.90;2.10;;;25.30;99.90;;;;;;4973469;28;20027;-71
2022/06/08 12:14:29;;;;;;;4.37;2.53;;;25.30;99.90;;;;;;4966212;28;20023;-72
2022/06/08 12:16:55;;;;;;;2.60;2.13;;;25.10;99.90;;;;;;4973474;28;20031;-71
2022/06/08 12:19:22;;;;;;;3.08;2.28;;;24.60;99.90;;;;;;4973522;28;20031;-71
2022/06/08 12:22:06;;;;;;;3.60;2.40;;;24.60;99.90;;;;;;4973649;28;20054;-71
2022/06/08 12:24:33;;;;;;;3.38;2.35;;;24.70;99.90;;;;;;4973423;28;20041;-72
2022/06/08 12:27:17;;;;;;;4.60;2.65;;;24.80;99.90;;;;;;4974051;28;20128;-70
2022/06/08 12:29:59;;;;;;;2.88;2.25;;;24.80;99.90;;;;;;4974132;28;20034;-71
2022/06/08 12:32:34;;;;;;;3.05;2.17;;;24.80;99.90;;;;;;4973525;28;20038;-71
2022/06/08 12:35:06;;;;;;;4.57;3.08;;;24.70;99.90;;;;;;4973519;28;20037;-71
2022/06/08 12:37:44;;;;;;;3.55;2.78;;;24.70;99.90;;;;;;4973341;28;20453;-71
2022/06/08 12:40:15;;;;;;;2.72;2.33;;;24.80;99.90;;;;;;4973091;28;20045;-70
2022/06/08 12:42:52;;;;;;;3.40;2.33;;;24.90;99.90;;;;;;4972674;28;20447;-72
2022/06/08 12:45:26;;;;;;;4.88;2.55;;;24.90;99.90;;;;;;4963745;28;20065;-70
2022/06/08 12:47:53;;;;;;;4.85;2.75;;;24.90;99.90;;;;;;4986994;28;20031;-70
2022/06/08 12:50:25;;;;;;;4.43;2.53;;;24.90;99.90;;;;;;4973222;28;20377;-71
2022/06/08 12:52:52;;;;;;;4.15;2.47;;;24.90;99.90;;;;;;4972038;28;20038;-70
2022/06/08 12:55:22;;;;;;;3.13;2.30;;;24.70;99.90;;;;;;4973267;28;20019;-69
2022/06/08 12:57:48;;;;;;;4.05;2.45;;;24.60;99.90;;;;;;4972978;28;20027;-68
2022/06/08 13:00:25;;;;;;;4.22;2.40;;;24.70;99.90;;;;;;4973528;28;20084;-71
2022/06/08 13:02:51;;;;;;;2.58;2.10;;;24.70;99.90;;;;;;4973153;28;20023;-69
2022/06/08 13:05:24;;;;;;;3.40;2.22;;;24.80;99.90;;;;;;4972256;28;20026;-70
2022/06/08 13:07:51;;;;;;;5.47;2.35;;;25.00;99.90;;;;;;4972486;28;20034;-71
2022/06/08 13:10:17;;;;;;;2.72;1.75;;;25.10;99.90;;;;;;4972642;28;20026;-71
2022/06/08 13:12:54;;;;;;;2.70;2.00;;;25.20;99.90;;;;;;4971263;28;20061;-70
2022/06/08 13:15:21;;;;;;;2.42;2.03;;;25.40;99.90;;;;;;4972335;28;20030;-71
2022/06/08 13:17:48;;;;;;;4.03;2.65;;;25.20;99.90;;;;;;4972232;28;20114;-71
2022/06/08 13:20:21;;;;;;;2.78;2.22;;;25.10;99.90;;;;;;4972543;28;20027;-70
2022/06/08 13:22:47;;;;;;;4.40;2.30;;;25.30;99.90;;;;;;4972160;28;20030;-70
2022/06/08 13:25:16;;;;;;;4.45;2.58;;;25.30;99.90;;;;;;4965117;28;20031;-71
2022/06/08 13:27:48;;;;;;;3.45;2.22;;;25.60;99.90;;;;;;4972413;28;20038;-70
2022/06/08 13:30:19;;;;;;;3.88;2.70;;;25.40;99.90;;;;;;4974547;28;20042;-71
2022/06/08 13:32:47;;;;;;;3.80;2.58;;;25.40;99.90;;;;;;4978380;28;20410;-71